CLEVELAND ARTCC (ZOB) FACILITY RUNWAY SELECTOR
METARS UPDATED AT 0128Z

Page auto refreshed every 5 minutes
FACILITYWINDVISIBILITY
CEILING
RUNWAY FLOWAPPROACHMETAR
KAGCCalm2 1/2SM
BKN008
Calm Wind Flow
DEP: 28
ARR: 28
Instrument ApproachKAGC 180115Z 00000KT 2 1/2SM BR SCT004 BKN008 OVC042 00/M01 A2998 RMK AO2 SNE15 P0001 T00001011
KBKL180@069SM
BKN060
24 Flow
DEP: 24L (GA), 24R
ARR: 24L (GA), 24R
Visual ApproachKBKL 180053Z 18006KT 9SM SCT046 BKN060 OVC075 00/M03 A3001 RMK AO2 SNB26E51 SLP168 P0000 T00001028
KBUF260@0310SM
BKN033
Calm Wind Flow
DEP: 23
ARR: 23
Visual ApproachKBUF 180054Z 26003KT 10SM BKN033 OVC055 M01/M08 A3001 RMK AO2 SLP172 T10111078
KCAK230@042SM
BKN013
Calm Wind Flow
DEP: 19
ARR: 23
Instrument ApproachKCAK 180051Z 23004KT 2SM -SN BR FEW004 BKN013 OVC021 M01/M02 A3000 RMK AO2 SFC VIS 2 1/2 SLP172 P0001 T10061022 $
KCGF200@047SM
OVC030
Calm Wind Flow
DEP: 6
ARR: 6
Visual ApproachKCGF 180045Z 20004KT 7SM OVC030 00/M02 A3001
KCLE180@058SM
BKN029
6/10 Flow
DEP: 6R
ARR: 6L, 10
Visual ApproachKCLE 180115Z 18005KT 8SM -SN BKN029 BKN050 OVC075 00/M02 A3002 RMK AO2 P0000 T00001022
KDTW160@0310SM
BKN075
Calm Wind Flow
DEP: 21R, 22L
ARR: 21L, 22R
Visual ApproachKDTW 180053Z 16003KT 10SM BKN075 OVC095 00/M04 A2998 RMK AO2 SLP159 T00001039
KERICalm4SM
OVC075
Calm Wind Flow
DEP: 6
ARR: 6
Visual ApproachKERI 180102Z 00000KT 4SM -SN SCT046 OVC075 M01/M04 A3001 RMK AO2 P0000 T10111044
KFNT230@073SM
OVC020
27 Flow
DEP: 27
ARR: 27
Instrument ApproachKFNT 180053Z 23007KT 3SM -SN BR OVC020 M02/M04 A2996 RMK AO2 SNB19 SLP158 P0000 T10171039
KIAG210@0310SM
BKN050
Calm Wind Flow
DEP: 28R, 28L (GA)
ARR: 28R, 28L (GA)
Visual ApproachKIAG 180053Z 21003KT 10SM BKN050 OVC065 M01/M08 A3001 RMK AO2 SLP178 T10061083
KJST260@031SM
BKN006
Calm Wind Flow
DEP: 15
ARR: 15
Instrument ApproachKJST 180111Z 26003KT 1SM -SN BR BKN006 OVC016 M03/M04 A2994 RMK AO2 P0001 T10281039
KLAN280@051 1/2SM
OVC023
27 Flow
DEP: 27
ARR: 27
Instrument ApproachKLAN 180117Z 28005KT 1 1/2SM -SN BR OVC023 M02/M03 A2997 RMK AO2 P0001 T10171028
KPITCalm3/4SM
BKN003
Calm Wind Flow
DEP: 28R, 28C
ARR: 28R, 28L, 32 (GA)
Instrument ApproachKPIT 180051Z 00000KT 3/4SM R28R/P6000FT -SN BR BKN003 OVC009 00/00 A2998 RMK AO2 SFC VIS 1 1/2 SLP174 P0001 T00000000
KROC340@0310SM
OVC040
Calm Wind Flow
DEP: 22
ARR: 22
Visual ApproachKROC 180054Z 34003KT 10SM OVC040 M01/M07 A3001 RMK AO2 SLP172 T10061067
KTOL180@0310SM
OVC085
Calm Wind Flow
DEP: 7
ARR: 7
Visual ApproachKTOL 180052Z 18003KT 10SM OVC085 00/M02 A2998 RMK AO2 SLP161 T00001017
KYNGCalm1 1/2SM
BKN026
Calm Wind Flow
DEP: 14
ARR: 14
Instrument ApproachKYNG 180051Z 00000KT 1 1/2SM -SN BR SCT016 BKN026 OVC037 M01/M03 A2999 RMK AO2 SLP169 P0001 T10111028
NOTE: Runway selection based on current VATSIM metar and ZOB SOPs.
Ceiling = Lowest reported ceiling.
GA = General Aviation aircraft only.
METAR Decode Key